Portada
METAR-TAF:

METAR-TAF

Aeropuertos :

Aeropuerto Internacional de Johannesburgo-Oliver Reginald Tambo

Johannesburgo, Sudáfrica

latitud: 26-08S, longitud: 028-14E, altitud: 1694 m

Observación

El informe se hizo hace 22 minutos, a las 05:30 UTC
Viento 6 kt del sur-suroeste
Temperatura 13°C
Humedad 58%
Presión 1031 hPa
Visibilidad 10 km o más
sin nubes por debajo de 1500 m y sin presencia de cumulonimbus.

METAR: FAOR 200530Z 20006KT CAVOK 13/05 Q1031 NOSIG

Hora: 07:52 (05:52 UTC)

Pronóstico

El informe se hizo hace 1 hora y 52 minutos, a las 04:00 UTC
Pronóstico válido del 20 a las 06 UTC al 21 a las 12 UTC
Viento 3 kt con dirección variable
Visibilidad 10 km o más
sin nubes por debajo de 1500 m y sin presencia de cumulonimbus.

TAF: FAOR 200400Z 2006/2112 VRB03KT CAVOK TX23/2013Z TN11/2104Z

Observaciones y pronósticos meteorológicos de más de 4000 aeropuertos (mensajes METAR y TAF).

Los puntos amarillos y rojos representan las estaciones disponibles.

Ponga el ratón en el punto deseado para ver el nombre de la estación.

Haga clic para ver las observaciones y los pronósticos meteorológicos.

Para cambiar el mapa : haga clic en los botones verdes con una cruz de color negro para hacer un zoom, en el botón verde con un guión para alejar o en las flechas verdes para mapas adyacentes.


METAR-TAF: